sensor_id;sensor_type;location;lat;lon;timestamp;temperature;humidity
16040;DHT22;8124;48.634;8.120;2023-02-23T00:03:32;12.90;99.90
16040;DHT22;8124;48.634;8.120;2023-02-23T00:08:35;12.90;99.90
16040;DHT22;8124;48.634;8.120;2023-02-23T00:13:40;12.80;99.90
16040;DHT22;8124;48.634;8.120;2023-02-23T00:18:46;12.80;99.90
16040;DHT22;8124;48.634;8.120;2023-02-23T00:23:53;12.80;99.90
16040;DHT22;8124;48.634;8.120;2023-02-23T00:28:57;12.70;99.90
16040;DHT22;8124;48.634;8.120;2023-02-23T00:34:03;12.80;99.90
16040;DHT22;8124;48.634;8.120;2023-02-23T00:39:10;12.70;99.90
16040;DHT22;8124;48.634;8.120;2023-02-23T00:44:23;12.80;99.90
16040;DHT22;8124;48.634;8.120;2023-02-23T00:49:27;12.80;99.90
16040;DHT22;8124;48.634;8.120;2023-02-23T00:54:30;12.70;99.90
16040;DHT22;8124;48.634;8.120;2023-02-23T00:59:33;12.70;99.90
16040;DHT22;8124;48.634;8.120;2023-02-23T01:04:37;12.70;99.90
16040;DHT22;8124;48.634;8.120;2023-02-23T01:09:40;12.70;99.90
16040;DHT22;8124;48.634;8.120;2023-02-23T01:14:44;12.70;99.90
16040;DHT22;8124;48.634;8.120;2023-02-23T01:19:49;12.60;99.90
16040;DHT22;8124;48.634;8.120;2023-02-23T01:24:54;12.60;99.90
16040;DHT22;8124;48.634;8.120;2023-02-23T01:29:57;12.70;99.90
16040;DHT22;8124;48.634;8.120;2023-02-23T01:35:02;12.70;99.90
16040;DHT22;8124;48.634;8.120;2023-02-23T01:40:07;12.60;99.90
16040;DHT22;8124;48.634;8.120;2023-02-23T01:45:22;12.60;99.90
16040;DHT22;8124;48.634;8.120;2023-02-23T01:50:30;12.60;99.90
16040;DHT22;8124;48.634;8.120;2023-02-23T01:55:34;12.60;99.90
16040;DHT22;8124;48.634;8.120;2023-02-23T02:00:37;12.50;99.90
16040;DHT22;8124;48.634;8.120;2023-02-23T02:05:43;12.50;99.90
16040;DHT22;8124;48.634;8.120;2023-02-23T02:10:48;12.50;99.90
16040;DHT22;8124;48.634;8.120;2023-02-23T02:16:16;12.50;99.90
16040;DHT22;8124;48.634;8.120;2023-02-23T02:22:11;12.60;99.90
16040;DHT22;8124;48.634;8.120;2023-02-23T02:27:26;12.70;99.90
16040;DHT22;8124;48.634;8.120;2023-02-23T02:32:55;12.60;99.90
16040;DHT22;8124;48.634;8.120;2023-02-23T02:38:19;12.60;99.90
16040;DHT22;8124;48.634;8.120;2023-02-23T02:43:33;12.60;99.90
16040;DHT22;8124;48.634;8.120;2023-02-23T02:48:44;12.60;99.90
16040;DHT22;8124;48.634;8.120;2023-02-23T02:53:57;12.50;99.90
16040;DHT22;8124;48.634;8.120;2023-02-23T02:59:10;12.50;99.90
16040;DHT22;8124;48.634;8.120;2023-02-23T03:04:31;12.50;99.90
16040;DHT22;8124;48.634;8.120;2023-02-23T03:09:56;12.60;99.90
16040;DHT22;8124;48.634;8.120;2023-02-23T03:15:28;12.60;99.90
16040;DHT22;8124;48.634;8.120;2023-02-23T03:21:04;12.60;99.90
16040;DHT22;8124;48.634;8.120;2023-02-23T03:26:34;12.60;99.90
16040;DHT22;8124;48.634;8.120;2023-02-23T03:32:02;12.60;99.90
16040;DHT22;8124;48.634;8.120;2023-02-23T03:37:29;12.60;99.90
16040;DHT22;8124;48.634;8.120;2023-02-23T03:42:52;12.60;99.90
16040;DHT22;8124;48.634;8.120;2023-02-23T03:48:18;12.60;99.90
16040;DHT22;8124;48.634;8.120;2023-02-23T03:53:42;12.50;99.90
16040;DHT22;8124;48.634;8.120;2023-02-23T03:59:07;12.70;99.90
16040;DHT22;8124;48.634;8.120;2023-02-23T04:04:28;12.70;99.90
16040;DHT22;8124;48.634;8.120;2023-02-23T04:09:49;12.70;99.90
16040;DHT22;8124;48.634;8.120;2023-02-23T04:15:16;12.70;99.90
16040;DHT22;8124;48.634;8.120;2023-02-23T04:20:21;12.60;99.90
16040;DHT22;8124;48.634;8.120;2023-02-23T04:25:25;12.50;99.90
16040;DHT22;8124;48.634;8.120;2023-02-23T04:30:30;12.50;99.90
16040;DHT22;8124;48.634;8.120;2023-02-23T04:35:33;12.50;99.90
16040;DHT22;8124;48.634;8.120;2023-02-23T04:40:36;12.50;99.90
16040;DHT22;8124;48.634;8.120;2023-02-23T04:45:41;12.50;99.90
16040;DHT22;8124;48.634;8.120;2023-02-23T04:50:44;12.60;99.90
16040;DHT22;8124;48.634;8.120;2023-02-23T04:55:47;12.60;99.90
16040;DHT22;8124;48.634;8.120;2023-02-23T05:00:51;12.60;99.90
16040;DHT22;8124;48.634;8.120;2023-02-23T05:05:54;12.60;99.90
16040;DHT22;8124;48.634;8.120;2023-02-23T05:10:57;12.50;99.90
16040;DHT22;8124;48.634;8.120;2023-02-23T05:16:02;12.40;99.90
16040;DHT22;8124;48.634;8.120;2023-02-23T05:21:07;12.50;99.90
16040;DHT22;8124;48.634;8.120;2023-02-23T05:26:11;12.50;99.90
16040;DHT22;8124;48.634;8.120;2023-02-23T05:31:16;12.50;99.90
16040;DHT22;8124;48.634;8.120;2023-02-23T05:36:20;12.80;99.90
16040;DHT22;8124;48.634;8.120;2023-02-23T05:41:23;12.70;99.90
16040;DHT22;8124;48.634;8.120;2023-02-23T05:46:28;12.60;99.90
16040;DHT22;8124;48.634;8.120;2023-02-23T05:51:32;12.50;99.90
16040;DHT22;8124;48.634;8.120;2023-02-23T05:56:35;12.50;99.90
16040;DHT22;8124;48.634;8.120;2023-02-23T06:01:40;12.40;99.90
16040;DHT22;8124;48.634;8.120;2023-02-23T06:06:43;12.10;99.90
16040;DHT22;8124;48.634;8.120;2023-02-23T06:11:46;12.10;99.90
16040;DHT22;8124;48.634;8.120;2023-02-23T06:16:50;12.10;99.90
16040;DHT22;8124;48.634;8.120;2023-02-23T06:21:53;11.90;99.90
16040;DHT22;8124;48.634;8.120;2023-02-23T06:26:56;11.70;99.90
16040;DHT22;8124;48.634;8.120;2023-02-23T06:32:00;11.80;99.90
16040;DHT22;8124;48.634;8.120;2023-02-23T06:37:03;12.00;99.90
16040;DHT22;8124;48.634;8.120;2023-02-23T06:42:09;12.10;99.90
16040;DHT22;8124;48.634;8.120;2023-02-23T06:47:14;12.10;99.90
16040;DHT22;8124;48.634;8.120;2023-02-23T06:52:17;12.10;99.90
16040;DHT22;8124;48.634;8.120;2023-02-23T06:57:20;12.30;99.90
16040;DHT22;8124;48.634;8.120;2023-02-23T07:02:24;12.30;99.90
16040;DHT22;8124;48.634;8.120;2023-02-23T07:07:27;12.30;99.90
16040;DHT22;8124;48.634;8.120;2023-02-23T07:12:30;12.30;99.90
16040;DHT22;8124;48.634;8.120;2023-02-23T07:17:34;12.20;99.90
16040;DHT22;8124;48.634;8.120;2023-02-23T07:22:37;12.30;99.90
16040;DHT22;8124;48.634;8.120;2023-02-23T07:27:40;12.30;99.90
16040;DHT22;8124;48.634;8.120;2023-02-23T07:32:46;12.40;99.90
16040;DHT22;8124;48.634;8.120;2023-02-23T07:37:49;12.40;99.90
16040;DHT22;8124;48.634;8.120;2023-02-23T07:42:52;12.50;99.90
16040;DHT22;8124;48.634;8.120;2023-02-23T07:47:57;12.50;99.90
16040;DHT22;8124;48.634;8.120;2023-02-23T07:53:00;12.60;99.90
16040;DHT22;8124;48.634;8.120;2023-02-23T07:58:04;12.60;99.90
16040;DHT22;8124;48.634;8.120;2023-02-23T08:03:08;12.70;99.90
16040;DHT22;8124;48.634;8.120;2023-02-23T08:08:11;13.30;99.90
16040;DHT22;8124;48.634;8.120;2023-02-23T08:13:14;13.10;99.90
16040;DHT22;8124;48.634;8.120;2023-02-23T08:18:19;13.00;99.90
16040;DHT22;8124;48.634;8.120;2023-02-23T08:23:22;12.90;99.90
16040;DHT22;8124;48.634;8.120;2023-02-23T08:28:26;12.90;99.90
16040;DHT22;8124;48.634;8.120;2023-02-23T08:33:30;12.90;99.90
16040;DHT22;8124;48.634;8.120;2023-02-23T08:38:33;12.90;99.90
16040;DHT22;8124;48.634;8.120;2023-02-23T08:43:37;12.30;99.90
16040;DHT22;8124;48.634;8.120;2023-02-23T08:48:41;12.20;99.90
16040;DHT22;8124;48.634;8.120;2023-02-23T08:53:44;12.10;99.90
16040;DHT22;8124;48.634;8.120;2023-02-23T08:58:47;12.00;99.90
16040;DHT22;8124;48.634;8.120;2023-02-23T09:03:52;12.10;99.90
16040;DHT22;8124;48.634;8.120;2023-02-23T09:08:55;12.10;99.90
16040;DHT22;8124;48.634;8.120;2023-02-23T09:13:58;12.30;99.90
16040;DHT22;8124;48.634;8.120;2023-02-23T09:19:02;12.20;99.90
16040;DHT22;8124;48.634;8.120;2023-02-23T09:24:06;12.40;99.90
16040;DHT22;8124;48.634;8.120;2023-02-23T09:29:09;12.50;99.90
16040;DHT22;8124;48.634;8.120;2023-02-23T09:34:13;12.50;99.90
16040;DHT22;8124;48.634;8.120;2023-02-23T09:39:16;12.50;99.90
16040;DHT22;8124;48.634;8.120;2023-02-23T09:44:47;12.60;99.90
16040;DHT22;8124;48.634;8.120;2023-02-23T09:49:54;12.60;99.90
16040;DHT22;8124;48.634;8.120;2023-02-23T09:54:59;12.60;99.90
16040;DHT22;8124;48.634;8.120;2023-02-23T10:00:23;12.70;99.90
16040;DHT22;8124;48.634;8.120;2023-02-23T10:05:31;12.80;99.90
16040;DHT22;8124;48.634;8.120;2023-02-23T10:10:44;12.90;99.90
16040;DHT22;8124;48.634;8.120;2023-02-23T10:15:52;13.00;99.90
16040;DHT22;8124;48.634;8.120;2023-02-23T10:21:02;13.10;99.90
16040;DHT22;8124;48.634;8.120;2023-02-23T10:26:07;13.10;99.90
16040;DHT22;8124;48.634;8.120;2023-02-23T10:31:36;13.10;99.90
16040;DHT22;8124;48.634;8.120;2023-02-23T10:36:44;13.20;99.90
16040;DHT22;8124;48.634;8.120;2023-02-23T10:41:47;13.20;99.90
16040;DHT22;8124;48.634;8.120;2023-02-23T10:46:54;13.30;99.90
16040;DHT22;8124;48.634;8.120;2023-02-23T10:52:00;13.40;99.90
16040;DHT22;8124;48.634;8.120;2023-02-23T10:57:04;13.50;99.90
16040;DHT22;8124;48.634;8.120;2023-02-23T11:02:22;13.60;99.90
16040;DHT22;8124;48.634;8.120;2023-02-23T11:07:28;13.70;99.90
16040;DHT22;8124;48.634;8.120;2023-02-23T11:12:36;13.70;99.90
16040;DHT22;8124;48.634;8.120;2023-02-23T11:17:42;13.70;99.90
16040;DHT22;8124;48.634;8.120;2023-02-23T11:22:47;13.70;99.90
16040;DHT22;8124;48.634;8.120;2023-02-23T11:27:50;13.50;99.90
16040;DHT22;8124;48.634;8.120;2023-02-23T11:32:56;13.70;99.90
16040;DHT22;8124;48.634;8.120;2023-02-23T11:38:14;13.70;99.90
16040;DHT22;8124;48.634;8.120;2023-02-23T11:43:17;13.60;99.90
16040;DHT22;8124;48.634;8.120;2023-02-23T11:48:43;13.50;99.90
16040;DHT22;8124;48.634;8.120;2023-02-23T11:54:24;13.70;99.90
16040;DHT22;8124;48.634;8.120;2023-02-23T11:59:38;13.70;99.90
16040;DHT22;8124;48.634;8.120;2023-02-23T12:04:49;13.90;99.90
16040;DHT22;8124;48.634;8.120;2023-02-23T12:10:05;14.00;99.90
16040;DHT22;8124;48.634;8.120;2023-02-23T12:15:35;14.10;99.90
16040;DHT22;8124;48.634;8.120;2023-02-23T12:21:15;14.00;99.90
16040;DHT22;8124;48.634;8.120;2023-02-23T12:26:41;14.10;99.90
16040;DHT22;8124;48.634;8.120;2023-02-23T12:32:13;14.20;99.90
16040;DHT22;8124;48.634;8.120;2023-02-23T12:37:40;14.30;99.90
16040;DHT22;8124;48.634;8.120;2023-02-23T12:43:14;14.50;99.90
16040;DHT22;8124;48.634;8.120;2023-02-23T12:48:32;14.50;99.90
16040;DHT22;8124;48.634;8.120;2023-02-23T12:54:00;14.50;99.90
16040;DHT22;8124;48.634;8.120;2023-02-23T13:05:20;14.30;99.90
16040;DHT22;8124;48.634;8.120;2023-02-23T13:10:33;14.30;99.90
16040;DHT22;8124;48.634;8.120;2023-02-23T13:15:48;14.50;99.90
16040;DHT22;8124;48.634;8.120;2023-02-23T13:21:07;14.80;99.90
16040;DHT22;8124;48.634;8.120;2023-02-23T13:26:21;14.70;99.90
16040;DHT22;8124;48.634;8.120;2023-02-23T13:31:40;14.90;99.90
16040;DHT22;8124;48.634;8.120;2023-02-23T13:36:50;14.90;99.90
16040;DHT22;8124;48.634;8.120;2023-02-23T13:42:08;15.00;99.90
16040;DHT22;8124;48.634;8.120;2023-02-23T13:47:35;15.00;99.90
16040;DHT22;8124;48.634;8.120;2023-02-23T13:52:45;15.00;99.90
16040;DHT22;8124;48.634;8.120;2023-02-23T13:57:48;15.20;99.90
16040;DHT22;8124;48.634;8.120;2023-02-23T14:02:55;15.20;99.90
16040;DHT22;8124;48.634;8.120;2023-02-23T14:08:00;15.10;99.90
16040;DHT22;8124;48.634;8.120;2023-02-23T14:13:23;15.20;99.90
16040;DHT22;8124;48.634;8.120;2023-02-23T14:18:33;15.20;99.90
16040;DHT22;8124;48.634;8.120;2023-02-23T14:24:07;15.20;99.90
16040;DHT22;8124;48.634;8.120;2023-02-23T14:29:26;15.10;99.90
16040;DHT22;8124;48.634;8.120;2023-02-23T14:34:49;15.10;99.90
16040;DHT22;8124;48.634;8.120;2023-02-23T14:40:09;15.00;99.90
16040;DHT22;8124;48.634;8.120;2023-02-23T14:45:18;14.90;99.90
16040;DHT22;8124;48.634;8.120;2023-02-23T14:50:30;14.90;99.90
16040;DHT22;8124;48.634;8.120;2023-02-23T14:55:34;14.70;99.90
16040;DHT22;8124;48.634;8.120;2023-02-23T15:00:44;14.60;99.90
16040;DHT22;8124;48.634;8.120;2023-02-23T15:05:53;14.70;99.90
16040;DHT22;8124;48.634;8.120;2023-02-23T15:11:00;14.40;99.90
16040;DHT22;8124;48.634;8.120;2023-02-23T15:16:07;14.30;99.90
16040;DHT22;8124;48.634;8.120;2023-02-23T15:21:15;14.40;99.90
16040;DHT22;8124;48.634;8.120;2023-02-23T15:26:26;14.50;99.90
16040;DHT22;8124;48.634;8.120;2023-02-23T15:31:49;14.30;99.90
16040;DHT22;8124;48.634;8.120;2023-02-23T15:36:56;14.40;99.90
16040;DHT22;8124;48.634;8.120;2023-02-23T15:42:01;14.40;99.90
16040;DHT22;8124;48.634;8.120;2023-02-23T15:47:05;14.40;99.90
16040;DHT22;8124;48.634;8.120;2023-02-23T15:52:24;14.50;99.90
16040;DHT22;8124;48.634;8.120;2023-02-23T15:57:29;14.50;99.90
16040;DHT22;8124;48.634;8.120;2023-02-23T16:02:35;14.40;99.90
16040;DHT22;8124;48.634;8.120;2023-02-23T16:07:41;14.40;99.90
16040;DHT22;8124;48.634;8.120;2023-02-23T16:13:16;14.40;99.90
16040;DHT22;8124;48.634;8.120;2023-02-23T16:18:31;14.50;99.90
16040;DHT22;8124;48.634;8.120;2023-02-23T16:23:41;14.40;99.90
16040;DHT22;8124;48.634;8.120;2023-02-23T16:28:46;14.30;99.90
16040;DHT22;8124;48.634;8.120;2023-02-23T16:34:23;14.20;99.90
16040;DHT22;8124;48.634;8.120;2023-02-23T16:39:29;14.10;99.90
16040;DHT22;8124;48.634;8.120;2023-02-23T16:44:32;14.00;99.90
16040;DHT22;8124;48.634;8.120;2023-02-23T16:49:44;14.10;99.90
16040;DHT22;8124;48.634;8.120;2023-02-23T16:54:49;14.00;99.90
16040;DHT22;8124;48.634;8.120;2023-02-23T16:59:56;13.90;99.90
16040;DHT22;8124;48.634;8.120;2023-02-23T17:05:05;13.80;99.90
16040;DHT22;8124;48.634;8.120;2023-02-23T17:10:17;13.70;99.90
16040;DHT22;8124;48.634;8.120;2023-02-23T17:15:27;13.70;99.90
16040;DHT22;8124;48.634;8.120;2023-02-23T17:20:31;13.50;99.90
16040;DHT22;8124;48.634;8.120;2023-02-23T17:25:36;13.60;99.90
16040;DHT22;8124;48.634;8.120;2023-02-23T17:30:39;13.60;99.90
16040;DHT22;8124;48.634;8.120;2023-02-23T17:35:43;13.70;99.90
16040;DHT22;8124;48.634;8.120;2023-02-23T17:40:48;13.90;99.90
16040;DHT22;8124;48.634;8.120;2023-02-23T17:46:28;14.30;99.90
16040;DHT22;8124;48.634;8.120;2023-02-23T18:11:07;13.70;99.90
16040;DHT22;8124;48.634;8.120;2023-02-23T18:16:24;13.70;99.90
16040;DHT22;8124;48.634;8.120;2023-02-23T18:21:44;13.60;99.90
16040;DHT22;8124;48.634;8.120;2023-02-23T18:27:20;13.50;99.90
16040;DHT22;8124;48.634;8.120;2023-02-23T18:32:27;13.40;99.90
16040;DHT22;8124;48.634;8.120;2023-02-23T18:37:42;13.30;99.90
16040;DHT22;8124;48.634;8.120;2023-02-23T18:42:54;13.20;99.90
16040;DHT22;8124;48.634;8.120;2023-02-23T18:48:05;13.20;99.90
16040;DHT22;8124;48.634;8.120;2023-02-23T18:53:16;13.20;99.90
16040;DHT22;8124;48.634;8.120;2023-02-23T18:58:27;13.10;99.90
16040;DHT22;8124;48.634;8.120;2023-02-23T19:03:31;13.10;99.90
16040;DHT22;8124;48.634;8.120;2023-02-23T19:08:34;13.00;99.90
16040;DHT22;8124;48.634;8.120;2023-02-23T19:13:40;13.00;99.90
16040;DHT22;8124;48.634;8.120;2023-02-23T19:19:19;13.00;99.90
16040;DHT22;8124;48.634;8.120;2023-02-23T19:24:54;13.00;99.90
16040;DHT22;8124;48.634;8.120;2023-02-23T19:52:05;12.60;99.90
16040;DHT22;8124;48.634;8.120;2023-02-23T19:57:17;12.60;99.90
16040;DHT22;8124;48.634;8.120;2023-02-23T20:02:22;12.70;99.90
16040;DHT22;8124;48.634;8.120;2023-02-23T20:07:30;12.80;99.90
16040;DHT22;8124;48.634;8.120;2023-02-23T20:12:36;12.70;99.90
16040;DHT22;8124;48.634;8.120;2023-02-23T20:17:39;13.90;99.90
16040;DHT22;8124;48.634;8.120;2023-02-23T20:22:51;13.20;99.90
16040;DHT22;8124;48.634;8.120;2023-02-23T20:27:54;13.10;99.90
16040;DHT22;8124;48.634;8.120;2023-02-23T20:33:06;12.90;99.90
16040;DHT22;8124;48.634;8.120;2023-02-23T20:38:13;12.80;99.90
16040;DHT22;8124;48.634;8.120;2023-02-23T20:43:18;12.80;99.90
16040;DHT22;8124;48.634;8.120;2023-02-23T20:48:22;12.70;99.90
16040;DHT22;8124;48.634;8.120;2023-02-23T20:53:28;12.60;99.90
16040;DHT22;8124;48.634;8.120;2023-02-23T20:58:31;12.80;99.90
16040;DHT22;8124;48.634;8.120;2023-02-23T21:03:34;12.70;99.90
16040;DHT22;8124;48.634;8.120;2023-02-23T21:08:38;12.70;99.90
16040;DHT22;8124;48.634;8.120;2023-02-23T21:13:44;12.50;99.90
16040;DHT22;8124;48.634;8.120;2023-02-23T21:18:47;12.50;99.90
16040;DHT22;8124;48.634;8.120;2023-02-23T21:23:55;12.50;99.90
16040;DHT22;8124;48.634;8.120;2023-02-23T21:28:58;12.50;99.90
16040;DHT22;8124;48.634;8.120;2023-02-23T21:34:02;12.30;99.90
16040;DHT22;8124;48.634;8.120;2023-02-23T21:39:08;12.30;99.90
16040;DHT22;8124;48.634;8.120;2023-02-23T21:44:12;12.10;99.90
16040;DHT22;8124;48.634;8.120;2023-02-23T21:49:16;12.00;99.90
16040;DHT22;8124;48.634;8.120;2023-02-23T21:54:21;12.30;99.90
16040;DHT22;8124;48.634;8.120;2023-02-23T21:59:24;12.30;99.90
16040;DHT22;8124;48.634;8.120;2023-02-23T22:04:27;12.30;99.90
16040;DHT22;8124;48.634;8.120;2023-02-23T22:09:31;12.30;99.90
16040;DHT22;8124;48.634;8.120;2023-02-23T22:14:34;12.20;99.90
16040;DHT22;8124;48.634;8.120;2023-02-23T22:19:37;12.30;99.90
16040;DHT22;8124;48.634;8.120;2023-02-23T22:24:41;12.20;99.90
16040;DHT22;8124;48.634;8.120;2023-02-23T22:29:44;12.20;99.90
16040;DHT22;8124;48.634;8.120;2023-02-23T22:34:47;12.10;99.90
16040;DHT22;8124;48.634;8.120;2023-02-23T22:39:51;12.30;99.90
16040;DHT22;8124;48.634;8.120;2023-02-23T22:44:55;12.30;99.90
16040;DHT22;8124;48.634;8.120;2023-02-23T22:49:58;12.20;99.90
16040;DHT22;8124;48.634;8.120;2023-02-23T22:55:03;12.20;99.90
16040;DHT22;8124;48.634;8.120;2023-02-23T23:00:07;12.00;99.90
16040;DHT22;8124;48.634;8.120;2023-02-23T23:05:13;12.20;99.90
16040;DHT22;8124;48.634;8.120;2023-02-23T23:10:18;12.20;99.90
16040;DHT22;8124;48.634;8.120;2023-02-23T23:15:20;12.10;99.90
16040;DHT22;8124;48.634;8.120;2023-02-23T23:20:24;12.10;99.90
16040;DHT22;8124;48.634;8.120;2023-02-23T23:25:28;12.00;99.90
16040;DHT22;8124;48.634;8.120;2023-02-23T23:30:31;12.10;99.90
16040;DHT22;8124;48.634;8.120;2023-02-23T23:35:36;12.10;99.90
16040;DHT22;8124;48.634;8.120;2023-02-23T23:40:40;12.10;99.90
16040;DHT22;8124;48.634;8.120;2023-02-23T23:45:47;12.10;99.90
16040;DHT22;8124;48.634;8.120;2023-02-23T23:50:52;12.10;99.90
16040;DHT22;8124;48.634;8.120;2023-02-23T23:56:02;12.00;99.90
